createdAt,value
2018-07-10T00:00:42.879Z,100140.06
2018-07-10T00:03:24.939Z,100141.81
2018-07-10T00:08:11.126Z,100141.56
2018-07-10T00:11:26.005Z,100138.98
2018-07-10T00:13:55.760Z,100145.73
2018-07-10T00:16:25.504Z,100136.06
2018-07-10T00:18:56.100Z,100141.59
2018-07-10T00:21:25.929Z,100142.31
2018-07-10T00:23:55.617Z,100140.18
2018-07-10T00:26:25.352Z,100145.72
2018-07-10T00:28:55.119Z,100141.87
2018-07-10T00:31:24.865Z,100143.42
2018-07-10T00:33:54.611Z,100141.08
2018-07-10T00:36:24.268Z,100129.27
2018-07-10T00:39:02.168Z,100133.64
2018-07-10T00:41:34.431Z,100136.87
2018-07-10T00:44:05.064Z,100138.65
2018-07-10T00:46:36.068Z,100136.70
2018-07-10T00:49:05.867Z,100134.08
2018-07-10T00:51:38.234Z,100133.25
2018-07-10T00:54:08.140Z,100132.33
2018-07-10T00:56:38.235Z,100130.09
2018-07-10T00:59:08.295Z,100127.00
2018-07-10T01:01:38.074Z,100129.33
2018-07-10T01:04:07.748Z,100126.70
2018-07-10T01:06:37.492Z,100125.37
2018-07-10T01:09:08.159Z,100120.52
2018-07-10T01:11:37.884Z,100116.00
2018-07-10T01:14:08.467Z,100116.78
2018-07-10T01:16:39.268Z,100111.52
2018-07-10T01:19:12.879Z,100110.00
2018-07-10T01:21:43.611Z,100111.19
2018-07-10T01:24:14.960Z,100108.29
2018-07-10T01:26:44.732Z,100107.77
2018-07-10T01:29:21.078Z,100099.14
2018-07-10T01:31:53.712Z,100100.49
2018-07-10T01:34:23.805Z,100104.38
2018-07-10T01:36:54.297Z,100096.62
2018-07-10T01:39:24.140Z,100090.53
2018-07-10T01:41:53.916Z,100089.49
2018-07-10T01:44:23.686Z,100089.96
2018-07-10T01:46:53.471Z,100092.08
2018-07-10T01:49:23.371Z,100097.71
2018-07-10T01:51:53.182Z,100094.94
2018-07-10T01:54:22.951Z,100090.09
2018-07-10T01:56:52.806Z,100086.88
2018-07-10T01:59:23.089Z,100089.62
2018-07-10T02:01:52.902Z,100086.92
2018-07-10T02:04:22.925Z,100088.66
2018-07-10T02:06:53.128Z,100094.83
2018-07-10T02:09:22.896Z,100096.27
2018-07-10T02:11:52.681Z,100088.94
2018-07-10T02:14:22.495Z,100086.50
2018-07-10T02:16:52.181Z,100080.50
2018-07-10T02:19:22.929Z,100084.59
2018-07-10T02:21:52.857Z,100082.28
2018-07-10T02:24:24.772Z,100073.73
2018-07-10T02:26:54.887Z,100079.99
2018-07-10T02:29:24.664Z,100077.02
2018-07-10T02:31:54.425Z,100081.72
2018-07-10T02:34:24.180Z,100079.17
2018-07-10T02:36:53.964Z,100084.08
2018-07-10T02:39:23.989Z,100077.94
2018-07-10T02:41:54.170Z,100080.14
2018-07-10T02:44:23.985Z,100084.66
2018-07-10T02:46:53.744Z,100075.39
2018-07-10T02:49:24.086Z,100072.55
2018-07-10T02:51:57.349Z,100073.27
2018-07-10T02:54:28.582Z,100068.70
2018-07-10T02:56:58.807Z,100071.88
2018-07-10T02:59:32.968Z,100070.10
2018-07-10T03:02:02.776Z,100077.70
2018-07-10T03:04:34.186Z,100078.47
2018-07-10T03:07:04.208Z,100079.09
2018-07-10T03:09:33.989Z,100084.63
2018-07-10T03:12:04.674Z,100082.36
2018-07-10T03:14:34.444Z,100082.80
2018-07-10T03:17:04.257Z,100077.32
2018-07-10T03:19:34.024Z,100081.70
2018-07-10T03:22:03.823Z,100080.39
2018-07-10T03:24:33.661Z,100076.73
2018-07-10T03:27:03.397Z,100071.92
2018-07-10T03:29:33.211Z,100058.80
2018-07-10T03:32:02.933Z,100066.05
2018-07-10T03:34:32.708Z,100059.59
2018-07-10T03:37:02.437Z,100048.98
2018-07-10T03:39:32.280Z,100046.41
2018-07-10T03:42:02.048Z,100048.83
2018-07-10T03:44:31.935Z,100042.66
2018-07-10T03:47:02.090Z,100040.63
2018-07-10T03:49:31.904Z,100046.00
2018-07-10T03:52:03.692Z,100036.63
2018-07-10T03:54:34.178Z,100039.80
2018-07-10T03:57:06.044Z,100041.29
2018-07-10T03:59:43.147Z,100043.84
2018-07-10T04:02:12.987Z,100040.28
2018-07-10T04:04:43.036Z,100035.76
2018-07-10T04:07:12.884Z,100036.49
2018-07-10T04:09:42.671Z,100029.99
2018-07-10T04:12:12.820Z,100028.98
2018-07-10T04:14:44.536Z,100035.57
2018-07-10T04:17:14.829Z,100032.08
2018-07-10T04:19:45.246Z,100031.87
2018-07-10T04:22:17.283Z,100031.73
2018-07-10T04:24:47.218Z,100025.16
2018-07-10T04:27:31.067Z,100022.45
2018-07-10T04:30:12.668Z,100019.63
2018-07-10T04:32:43.013Z,100016.45
2018-07-10T04:35:14.428Z,100017.66
2018-07-10T04:37:47.637Z,100011.59
2018-07-10T04:40:18.335Z,100004.86
2018-07-10T04:42:57.328Z,100005.82
2018-07-10T04:45:34.892Z,100006.34
2018-07-10T04:48:04.736Z,100003.27
2018-07-10T04:50:44.891Z,99998.25
2018-07-10T04:53:50.749Z,100000.95
2018-07-10T04:56:21.151Z,99996.03
2018-07-10T04:58:55.871Z,99996.14
2018-07-10T05:01:30.764Z,99989.50
2018-07-10T05:04:02.220Z,99991.87
2018-07-10T05:06:35.183Z,99978.02
2018-07-10T05:09:05.882Z,99980.31
2018-07-10T05:11:38.876Z,99972.94
2018-07-10T05:14:08.689Z,99963.84
2018-07-10T05:16:38.484Z,99963.16
2018-07-10T05:19:08.318Z,99966.27
2018-07-10T05:21:38.081Z,99960.60
2018-07-10T05:24:07.855Z,99956.50
2018-07-10T05:26:37.670Z,99970.94
2018-07-10T05:29:07.486Z,99971.45
2018-07-10T05:31:38.236Z,99971.89
2018-07-10T05:34:08.099Z,99965.16
2018-07-10T05:36:37.883Z,99964.86
2018-07-10T05:39:09.100Z,99968.14
2018-07-10T05:41:42.475Z,99959.52
2018-07-10T05:44:12.439Z,99960.92
2018-07-10T05:46:42.258Z,99966.25
2018-07-10T05:49:12.105Z,99955.03
2018-07-10T05:51:48.298Z,99962.50
2018-07-10T05:54:18.192Z,99954.60
2018-07-10T05:56:47.946Z,99956.55
2018-07-10T05:59:17.681Z,99947.67
2018-07-10T06:01:47.461Z,99950.23
2018-07-10T06:04:18.276Z,99947.41
2018-07-10T06:06:48.526Z,99952.03
2018-07-10T06:09:19.011Z,99941.19
2018-07-10T06:11:48.792Z,99938.48
2018-07-10T06:14:18.534Z,99947.69
2018-07-10T06:16:48.573Z,99941.97
2018-07-10T06:19:18.386Z,99946.97
2018-07-10T06:21:50.654Z,99948.13
2018-07-10T06:24:24.880Z,99943.09
2018-07-10T06:26:58.244Z,99945.95
2018-07-10T06:29:31.314Z,99940.07
2018-07-10T06:32:02.643Z,99940.59
2018-07-10T06:34:36.856Z,99946.68
2018-07-10T06:37:08.805Z,99940.90
2018-07-10T06:39:38.941Z,99946.22
2018-07-10T06:42:15.696Z,99944.05
2018-07-10T06:44:49.756Z,99941.35
2018-07-10T06:47:26.532Z,99938.20
2018-07-10T06:49:56.544Z,99934.75
2018-07-10T06:52:26.457Z,99934.02
2018-07-10T06:55:07.281Z,99934.31
2018-07-10T06:57:57.003Z,99939.47
2018-07-10T07:00:26.877Z,99931.51
2018-07-10T07:02:56.724Z,99934.70
2018-07-10T07:05:26.437Z,99934.34
2018-07-10T07:07:56.285Z,99936.66
2018-07-10T07:10:26.519Z,99935.38
2018-07-10T07:12:56.285Z,99931.33
2018-07-10T07:15:26.080Z,99928.01
2018-07-10T07:17:55.796Z,99926.00
2018-07-10T07:20:25.535Z,99923.11
2018-07-10T07:22:55.248Z,99927.42
2018-07-10T07:25:25.068Z,99932.16
2018-07-10T07:27:54.825Z,99929.16
2018-07-10T07:30:24.591Z,99925.41
2018-07-10T07:32:54.357Z,99929.23
2018-07-10T07:35:24.374Z,99933.63
2018-07-10T07:37:54.304Z,99934.91
2018-07-10T07:40:23.996Z,99936.84
2018-07-10T07:42:53.761Z,99934.44
2018-07-10T07:45:23.535Z,99945.28
2018-07-10T07:47:53.875Z,99948.62
2018-07-10T07:50:23.611Z,99946.20
2018-07-10T07:52:53.444Z,99948.59
2018-07-10T07:55:23.243Z,99948.27
2018-07-10T07:57:52.991Z,99947.83
2018-07-10T08:00:22.795Z,99947.41
2018-07-10T08:02:52.572Z,99946.11
2018-07-10T08:05:22.343Z,99942.95
2018-07-10T08:07:52.092Z,99941.03
2018-07-10T08:10:21.911Z,99933.51
2018-07-10T08:12:51.732Z,99934.85
2018-07-10T08:15:21.637Z,99934.50
2018-07-10T08:17:51.412Z,99932.56
2018-07-10T08:20:21.224Z,99931.67
2018-07-10T08:22:51.023Z,99937.09
2018-07-10T08:25:22.177Z,99934.59
2018-07-10T08:27:51.968Z,99936.22
2018-07-10T08:30:21.768Z,99926.57
2018-07-10T08:32:52.607Z,99930.50
2018-07-10T08:35:22.360Z,99928.11
2018-07-10T08:37:52.389Z,99921.53
2018-07-10T08:40:22.162Z,99924.11
2018-07-10T08:42:51.956Z,99921.61
2018-07-10T08:45:22.138Z,99923.55
2018-07-10T08:47:51.925Z,99918.83
2018-07-10T08:50:21.688Z,99922.60
2018-07-10T08:52:51.556Z,99919.89
2018-07-10T08:55:21.320Z,99916.03
2018-07-10T08:57:52.088Z,99915.28
2018-07-10T09:00:21.907Z,99914.39
2018-07-10T09:02:51.700Z,99906.00
2018-07-10T09:05:21.760Z,99902.81
2018-07-10T09:07:51.498Z,99904.05
2018-07-10T09:10:21.327Z,99897.78
2018-07-10T09:12:51.044Z,99889.17
2018-07-10T09:15:20.844Z,99892.30
2018-07-10T09:17:50.603Z,99890.70
2018-07-10T09:20:26.680Z,99888.50
2018-07-10T09:22:56.524Z,99890.70
2018-07-10T09:25:26.301Z,99890.08
2018-07-10T09:27:56.224Z,99899.19
2018-07-10T09:30:26.041Z,99890.08
2018-07-10T09:32:55.807Z,99889.09
2018-07-10T09:35:25.631Z,99890.97
2018-07-10T09:37:55.416Z,99886.92
2018-07-10T09:40:25.348Z,99887.31
2018-07-10T09:42:57.876Z,99892.31
2018-07-10T09:45:34.375Z,99891.66
2018-07-10T09:48:05.080Z,99894.30
2018-07-10T09:50:35.095Z,99894.69
2018-07-10T09:53:04.957Z,99892.88
2018-07-10T09:55:34.780Z,99889.84
2018-07-10T09:58:04.548Z,99894.55
2018-07-10T10:00:39.959Z,99888.16
2018-07-10T10:03:10.033Z,99899.94
2018-07-10T10:05:42.896Z,99895.13
2018-07-10T10:08:12.996Z,99898.66
2018-07-10T10:10:42.864Z,99902.15
2018-07-10T10:13:12.611Z,99899.61
2018-07-10T10:15:43.184Z,99900.20
2018-07-10T10:18:13.256Z,99900.67
2018-07-10T10:20:43.380Z,99897.86
2018-07-10T10:23:14.380Z,99902.98
2018-07-10T10:25:48.409Z,99896.38
2018-07-10T10:28:19.144Z,99897.66
2018-07-10T10:30:48.891Z,99896.77
2018-07-10T10:33:18.700Z,99896.31
2018-07-10T10:35:48.561Z,99893.95
2018-07-10T10:38:19.068Z,99894.43
2018-07-10T10:40:49.680Z,99889.78
2018-07-10T10:43:19.444Z,99887.08
2018-07-10T10:45:49.311Z,99885.05
2018-07-10T10:48:19.151Z,99891.44
2018-07-10T10:50:50.700Z,99885.88
2018-07-10T10:53:21.167Z,99888.30
2018-07-10T10:55:50.984Z,99882.09
2018-07-10T10:58:21.840Z,99881.21
2018-07-10T11:00:51.772Z,99884.92
2018-07-10T11:03:21.588Z,99877.59
2018-07-10T11:05:51.440Z,99877.36
2018-07-10T11:08:21.868Z,99886.75
2018-07-10T11:10:52.316Z,99883.43
2018-07-10T11:13:22.410Z,99879.39
2018-07-10T11:15:52.505Z,99883.20
2018-07-10T11:19:17.558Z,99876.41
2018-07-10T11:21:54.383Z,99880.39
2018-07-10T11:24:24.178Z,99880.41
2018-07-10T11:26:53.961Z,99876.77
2018-07-10T11:29:23.805Z,99878.45
2018-07-10T11:31:53.552Z,99873.99
2018-07-10T11:34:23.503Z,99872.85
2018-07-10T11:36:53.299Z,99876.38
2018-07-10T11:39:23.303Z,99869.16
2018-07-10T11:41:54.080Z,99874.22
2018-07-10T11:44:23.904Z,99875.62
2018-07-10T11:46:53.689Z,99875.30
2018-07-10T11:49:23.536Z,99875.33
2018-07-10T11:51:53.296Z,99878.72
2018-07-10T11:54:23.111Z,99876.97
2018-07-10T11:56:52.872Z,99878.39
2018-07-10T11:59:22.695Z,99874.55
2018-07-10T12:01:52.519Z,99875.36
2018-07-10T12:04:22.323Z,99875.50
2018-07-10T12:06:53.343Z,99872.08
2018-07-10T12:09:23.072Z,99875.36
2018-07-10T12:11:52.891Z,99871.98
2018-07-10T12:14:22.607Z,99875.76
2018-07-10T12:16:52.421Z,99872.17
2018-07-10T12:19:22.203Z,99871.84
2018-07-10T12:21:51.988Z,99874.15
2018-07-10T12:24:21.826Z,99876.55
2018-07-10T12:26:51.597Z,99872.41
2018-07-10T12:29:21.441Z,99872.30
2018-07-10T12:31:51.244Z,99879.17
2018-07-10T12:34:21.055Z,99877.70
2018-07-10T12:36:50.841Z,99881.47
2018-07-10T12:39:20.604Z,99875.23
2018-07-10T12:41:50.405Z,99877.70
2018-07-10T12:44:20.197Z,99876.52
2018-07-10T12:46:49.961Z,99874.23
2018-07-10T12:49:19.872Z,99873.08
2018-07-10T12:51:49.897Z,99872.16
2018-07-10T12:54:19.717Z,99873.15
2018-07-10T12:56:49.475Z,99874.13
2018-07-10T12:59:19.303Z,99873.15
2018-07-10T13:01:49.103Z,99872.33
2018-07-10T13:04:19.517Z,99873.45
2018-07-10T13:06:49.292Z,99870.45
2018-07-10T13:09:19.103Z,99878.02
2018-07-10T13:11:48.972Z,99878.33
2018-07-10T13:14:18.743Z,99876.10
2018-07-10T13:16:48.500Z,99877.89
2018-07-10T13:19:19.645Z,99871.72
2018-07-10T13:21:49.419Z,99875.77
2018-07-10T13:24:19.216Z,99873.58
2018-07-10T13:26:48.988Z,99873.45
2018-07-10T13:29:18.846Z,99867.95
2018-07-10T13:31:48.646Z,99864.03
2018-07-10T13:34:18.412Z,99873.97
2018-07-10T13:36:48.120Z,99875.69
2018-07-10T13:39:17.923Z,99871.75
2018-07-10T13:41:47.688Z,99873.22
2018-07-10T13:44:17.440Z,99862.95
2018-07-10T13:46:47.191Z,99865.91
2018-07-10T13:49:16.945Z,99861.05
2018-07-10T13:51:46.872Z,99859.41
2018-07-10T13:54:16.605Z,99861.21
2018-07-10T13:56:46.430Z,99857.69
2018-07-10T13:59:16.851Z,99864.22
2018-07-10T14:01:46.624Z,99864.91
2018-07-10T14:04:16.397Z,99864.01
2018-07-10T14:06:46.342Z,99861.93
2018-07-10T14:09:16.020Z,99862.62
2018-07-10T14:11:45.671Z,99861.48
2018-07-10T14:14:15.457Z,99864.94
2018-07-10T14:16:45.212Z,99865.56
2018-07-10T14:19:15.960Z,99861.16
2018-07-10T14:21:46.204Z,99860.48
2018-07-10T14:24:15.940Z,99846.46
2018-07-10T14:26:45.664Z,99858.58
2018-07-10T14:29:15.421Z,99860.66
2018-07-10T14:31:45.156Z,99864.55
2018-07-10T14:34:14.878Z,99864.31
2018-07-10T14:36:44.685Z,99858.77
2018-07-10T14:39:14.452Z,99870.04
2018-07-10T14:41:44.283Z,99861.36
2018-07-10T14:44:14.148Z,99868.14
2018-07-10T14:46:43.817Z,99870.04
2018-07-10T14:49:13.632Z,99873.09
2018-07-10T14:51:46.193Z,99871.75
2018-07-10T14:54:15.992Z,99869.45
2018-07-10T14:56:45.773Z,99873.13
2018-07-10T14:59:16.261Z,99874.59
2018-07-10T15:01:46.026Z,99873.95
2018-07-10T15:04:15.707Z,99879.80
2018-07-10T15:06:45.457Z,99870.70
2018-07-10T15:09:15.995Z,99881.70
2018-07-10T15:11:45.673Z,99881.14
2018-07-10T15:14:15.318Z,99885.61
2018-07-10T15:16:50.129Z,99887.73
2018-07-10T15:19:19.951Z,99886.44
2018-07-10T15:21:49.728Z,99887.09
2018-07-10T15:24:19.423Z,99893.59
2018-07-10T15:26:49.183Z,99890.20
2018-07-10T15:29:24.016Z,99890.66
2018-07-10T15:31:53.768Z,99888.68
2018-07-10T15:34:23.464Z,99890.77
2018-07-10T15:36:53.330Z,99889.75
2018-07-10T15:39:23.336Z,99886.39
2018-07-10T15:41:53.992Z,99887.04
2018-07-10T15:44:23.738Z,99884.37
2018-07-10T15:46:54.573Z,99875.09
2018-07-10T15:49:24.315Z,99874.35
2018-07-10T15:51:54.648Z,99881.55
2018-07-10T15:54:24.420Z,99876.41
2018-07-10T15:56:54.274Z,99871.58
2018-07-10T15:59:24.005Z,99872.77
2018-07-10T16:01:53.804Z,99868.19
2018-07-10T16:04:23.639Z,99863.61
2018-07-10T16:06:54.597Z,99867.30
2018-07-10T16:09:24.415Z,99865.42
2018-07-10T16:12:01.146Z,99861.02
2018-07-10T16:14:31.309Z,99861.50
2018-07-10T16:17:03.395Z,99861.38
2018-07-10T16:19:44.698Z,99857.36
2018-07-10T16:22:24.022Z,99857.56
2018-07-10T16:24:55.654Z,99860.92
2018-07-10T16:27:37.789Z,99861.07
2018-07-10T16:30:07.613Z,99858.69
2018-07-10T16:32:38.856Z,99858.48
2018-07-10T16:35:08.978Z,99861.36
2018-07-10T16:37:38.743Z,99858.38
2018-07-10T16:40:09.212Z,99864.67
2018-07-10T16:42:44.219Z,99861.73
2018-07-10T16:45:33.946Z,99866.47
2018-07-10T16:48:20.149Z,99866.38
2018-07-10T16:51:57.106Z,99867.56
2018-07-10T16:54:26.888Z,99865.36
2018-07-10T16:56:56.659Z,99864.95
2018-07-10T16:59:27.431Z,99865.56
2018-07-10T17:01:57.239Z,99869.66
2018-07-10T17:04:27.116Z,99864.67
2018-07-10T17:06:56.876Z,99866.55
2018-07-10T17:09:26.640Z,99868.31
2018-07-10T17:11:56.624Z,99868.72
2018-07-10T17:14:26.655Z,99865.73
2018-07-10T17:16:56.412Z,99872.16
2018-07-10T17:19:26.267Z,99878.05
2018-07-10T17:21:56.442Z,99882.39
2018-07-10T17:24:26.221Z,99885.53
2018-07-10T17:26:55.976Z,99888.97
2018-07-10T17:29:25.743Z,99891.83
2018-07-10T17:31:55.540Z,99889.88
2018-07-10T17:34:25.267Z,99896.86
2018-07-10T17:36:55.054Z,99900.34
2018-07-10T17:39:24.830Z,99893.30
2018-07-10T17:41:54.760Z,99893.80
2018-07-10T17:44:24.510Z,99897.69
2018-07-10T17:46:54.280Z,99908.96
2018-07-10T17:49:24.096Z,99906.34
2018-07-10T17:51:53.921Z,99906.79
2018-07-10T17:54:23.723Z,99907.59
2018-07-10T17:56:53.592Z,99905.02
2018-07-10T17:59:23.350Z,99912.56
2018-07-10T18:01:53.196Z,99911.31
2018-07-10T18:04:22.944Z,99924.45
2018-07-10T18:06:52.947Z,99928.25
2018-07-10T18:09:22.927Z,99926.42
2018-07-10T18:11:52.658Z,99924.80
2018-07-10T18:14:22.452Z,99934.05
2018-07-10T18:16:52.220Z,99939.61
2018-07-10T18:19:21.996Z,99933.94
2018-07-10T18:21:51.780Z,99933.25
2018-07-10T18:24:21.488Z,99937.22
2018-07-10T18:26:51.603Z,99935.66
2018-07-10T18:29:21.299Z,99933.99
2018-07-10T18:31:51.013Z,99938.16
2018-07-10T18:34:21.082Z,99946.38
2018-07-10T18:36:50.777Z,99952.30
2018-07-10T18:39:20.520Z,99951.28
2018-07-10T18:41:50.284Z,99953.78
2018-07-10T18:44:20.104Z,99956.58
2018-07-10T18:46:49.910Z,99958.09
2018-07-10T18:49:20.596Z,99960.03
2018-07-10T18:51:51.403Z,99960.63
2018-07-10T18:54:31.009Z,99961.20
2018-07-10T18:57:00.840Z,99962.42
2018-07-10T18:59:33.896Z,99965.27
2018-07-10T19:02:07.756Z,99970.59
2018-07-10T19:05:04.075Z,99973.81
2018-07-10T19:07:35.988Z,99981.72
2018-07-10T19:10:05.862Z,99972.59
2018-07-10T19:12:35.910Z,99979.69
2018-07-10T19:15:12.219Z,99979.39
2018-07-10T19:17:41.992Z,99981.72
2018-07-10T19:20:12.649Z,99983.10
2018-07-10T19:22:53.156Z,99982.94
2018-07-10T19:25:23.531Z,99987.80
2018-07-10T19:27:54.662Z,99994.67
2018-07-10T19:31:30.158Z,99991.20
2018-07-10T19:33:59.915Z,99994.22
2018-07-10T19:36:29.708Z,99994.95
2018-07-10T19:39:00.597Z,99995.11
2018-07-10T19:41:30.859Z,100000.70
2018-07-10T19:44:00.655Z,99998.06
2018-07-10T19:46:32.661Z,99999.22
2018-07-10T19:49:02.974Z,100003.27
2018-07-10T19:51:32.775Z,100006.48
2018-07-10T19:54:06.882Z,100002.18
2018-07-10T19:56:38.299Z,100008.79
2018-07-10T19:59:08.935Z,100010.47
2018-07-10T20:02:02.070Z,100011.48
2018-07-10T20:05:10.775Z,100011.58
2018-07-10T20:07:44.293Z,100002.70
2018-07-10T20:10:24.323Z,100006.81
2018-07-10T20:13:05.745Z,100010.16
2018-07-10T20:16:19.621Z,100010.23
2018-07-10T20:19:59.988Z,100009.44
2018-07-10T20:22:34.915Z,100012.33
2018-07-10T20:26:10.483Z,100011.05
2018-07-10T20:28:57.913Z,100019.66
2018-07-10T20:31:33.131Z,100016.11
2018-07-10T20:34:07.323Z,100020.16
2018-07-10T20:36:37.657Z,100017.32
2018-07-10T20:39:07.831Z,100013.53
2018-07-10T20:41:43.671Z,100014.49
2018-07-10T20:44:15.559Z,100012.52
2018-07-10T20:46:50.448Z,100009.30
2018-07-10T20:49:29.746Z,100009.69
2018-07-10T20:52:07.203Z,100015.41
2018-07-10T20:54:44.020Z,100019.23
2018-07-10T20:57:22.340Z,100016.65
2018-07-10T20:59:57.523Z,100014.97
2018-07-10T21:02:35.748Z,100016.42
2018-07-10T21:05:10.279Z,100017.48
2018-07-10T21:07:59.773Z,100015.90
2018-07-10T21:10:47.659Z,100012.50
2018-07-10T21:13:54.915Z,100013.45
2018-07-10T21:16:32.261Z,100010.21
2018-07-10T21:19:13.865Z,100005.45
2018-07-10T21:22:03.470Z,100004.14
2018-07-10T21:24:49.128Z,100009.80
2018-07-10T21:27:26.628Z,100009.31
2018-07-10T21:30:02.146Z,100012.61
2018-07-10T21:32:40.311Z,100012.55
2018-07-10T21:35:10.680Z,100017.32
2018-07-10T21:40:01.825Z,100025.02
2018-07-10T21:42:46.324Z,100018.66
2018-07-10T21:46:28.989Z,100022.59
2018-07-10T21:50:08.624Z,100027.45
2018-07-10T21:52:38.376Z,100031.88
2018-07-10T21:55:08.162Z,100030.18
2018-07-10T21:57:41.200Z,100031.28
2018-07-10T22:00:10.964Z,100026.44
2018-07-10T22:02:40.761Z,100028.64
2018-07-10T22:05:10.776Z,100028.69
2018-07-10T22:07:40.560Z,100026.14
2018-07-10T22:10:10.425Z,100023.84
2018-07-10T22:12:44.344Z,100027.25
2018-07-10T22:15:14.169Z,100025.62
2018-07-10T22:17:44.621Z,100030.34
2018-07-10T22:20:14.451Z,100030.95
2018-07-10T22:22:44.220Z,100028.59
2018-07-10T22:25:14.067Z,100026.53
2018-07-10T22:27:44.031Z,100025.70
2018-07-10T22:30:21.316Z,100029.94
2018-07-10T22:32:57.601Z,100026.63
2018-07-10T22:35:27.411Z,100033.80
2018-07-10T22:37:57.219Z,100025.05
2018-07-10T22:40:27.065Z,100027.27
2018-07-10T22:42:56.868Z,100023.18
2018-07-10T22:45:28.011Z,100028.09
2018-07-10T22:47:57.796Z,100021.05
2018-07-10T22:50:28.552Z,100024.43
2018-07-10T22:53:00.380Z,100020.64
2018-07-10T22:55:31.930Z,100017.60
2018-07-10T22:58:05.053Z,100019.28
2018-07-10T23:00:40.142Z,100018.61
2018-07-10T23:03:18.404Z,100015.98
2018-07-10T23:05:49.916Z,100019.23
2018-07-10T23:08:30.116Z,100022.64
2018-07-10T23:11:00.812Z,100017.59
2018-07-10T23:13:30.600Z,100011.30
2018-07-10T23:16:00.517Z,100010.97
2018-07-10T23:18:30.360Z,100012.03
2018-07-10T23:21:00.228Z,100016.69
2018-07-10T23:23:30.015Z,100007.52
2018-07-10T23:25:59.813Z,100011.08
2018-07-10T23:28:30.876Z,100010.73
2018-07-10T23:31:00.769Z,100010.93
2018-07-10T23:33:30.634Z,100007.57
2018-07-10T23:36:01.804Z,100012.66
2018-07-10T23:40:06.472Z,100005.53
2018-07-10T23:42:36.701Z,100013.16
2018-07-10T23:45:14.608Z,100010.09
2018-07-10T23:47:47.924Z,100000.34
2018-07-10T23:50:34.093Z,100002.70
2018-07-10T23:53:47.563Z,100003.18
2018-07-10T23:56:17.844Z,100004.28
2018-07-10T23:58:48.232Z,100004.00
